sensor_id;sensor_type;location;lat;lon;timestamp;temperature;humidity
19168;DHT22;9716;53.114;18.040;2023-08-08T00:01:09;15.30;99.90
19168;DHT22;9716;53.114;18.040;2023-08-08T00:03:38;15.30;99.90
19168;DHT22;9716;53.114;18.040;2023-08-08T00:06:07;15.20;99.90
19168;DHT22;9716;53.114;18.040;2023-08-08T00:08:43;15.20;99.90
19168;DHT22;9716;53.114;18.040;2023-08-08T00:11:13;15.20;99.90
19168;DHT22;9716;53.114;18.040;2023-08-08T00:13:42;15.20;99.90
19168;DHT22;9716;53.114;18.040;2023-08-08T00:16:17;15.10;99.90
19168;DHT22;9716;53.114;18.040;2023-08-08T00:18:47;15.10;99.90
19168;DHT22;9716;53.114;18.040;2023-08-08T00:21:17;15.10;99.90
19168;DHT22;9716;53.114;18.040;2023-08-08T00:23:50;15.00;99.90
19168;DHT22;9716;53.114;18.040;2023-08-08T00:26:21;15.10;99.90
19168;DHT22;9716;53.114;18.040;2023-08-08T00:28:56;15.20;99.90
19168;DHT22;9716;53.114;18.040;2023-08-08T00:31:29;15.00;99.90
19168;DHT22;9716;53.114;18.040;2023-08-08T00:33:59;15.10;99.90
19168;DHT22;9716;53.114;18.040;2023-08-08T00:36:31;15.10;99.90
19168;DHT22;9716;53.114;18.040;2023-08-08T00:39:20;15.10;99.90
19168;DHT22;9716;53.114;18.040;2023-08-08T00:41:50;15.30;99.90
19168;DHT22;9716;53.114;18.040;2023-08-08T00:44:19;15.00;99.90
19168;DHT22;9716;53.114;18.040;2023-08-08T00:46:48;15.00;99.90
19168;DHT22;9716;53.114;18.040;2023-08-08T00:49:17;15.00;99.90
19168;DHT22;9716;53.114;18.040;2023-08-08T00:51:47;15.10;99.90
19168;DHT22;9716;53.114;18.040;2023-08-08T00:54:18;14.90;99.90
19168;DHT22;9716;53.114;18.040;2023-08-08T00:56:53;15.00;99.90
19168;DHT22;9716;53.114;18.040;2023-08-08T00:59:24;14.90;99.90
19168;DHT22;9716;53.114;18.040;2023-08-08T01:01:57;14.90;99.90
19168;DHT22;9716;53.114;18.040;2023-08-08T01:04:33;14.90;99.90
19168;DHT22;9716;53.114;18.040;2023-08-08T01:07:10;14.90;99.90
19168;DHT22;9716;53.114;18.040;2023-08-08T01:09:47;14.90;99.90
19168;DHT22;9716;53.114;18.040;2023-08-08T01:12:20;14.80;99.90
19168;DHT22;9716;53.114;18.040;2023-08-08T01:14:54;15.00;99.90
19168;DHT22;9716;53.114;18.040;2023-08-08T01:17:25;14.80;99.90
19168;DHT22;9716;53.114;18.040;2023-08-08T01:19:54;14.80;99.90
19168;DHT22;9716;53.114;18.040;2023-08-08T01:22:32;14.80;99.90
19168;DHT22;9716;53.114;18.040;2023-08-08T01:25:19;14.80;99.90
19168;DHT22;9716;53.114;18.040;2023-08-08T01:27:50;14.70;99.90
19168;DHT22;9716;53.114;18.040;2023-08-08T01:30:19;14.70;99.90
19168;DHT22;9716;53.114;18.040;2023-08-08T01:32:49;14.70;99.90
19168;DHT22;9716;53.114;18.040;2023-08-08T01:35:18;14.70;99.90
19168;DHT22;9716;53.114;18.040;2023-08-08T01:37:57;14.70;99.90
19168;DHT22;9716;53.114;18.040;2023-08-08T01:40:29;14.70;99.90
19168;DHT22;9716;53.114;18.040;2023-08-08T01:43:02;14.70;99.90
19168;DHT22;9716;53.114;18.040;2023-08-08T01:45:32;14.70;99.90
19168;DHT22;9716;53.114;18.040;2023-08-08T01:48:07;14.70;99.90
19168;DHT22;9716;53.114;18.040;2023-08-08T01:50:39;14.60;99.90
19168;DHT22;9716;53.114;18.040;2023-08-08T01:53:11;14.60;99.90
19168;DHT22;9716;53.114;18.040;2023-08-08T01:55:45;14.50;99.90
19168;DHT22;9716;53.114;18.040;2023-08-08T01:58:15;14.60;99.90
19168;DHT22;9716;53.114;18.040;2023-08-08T02:00:44;14.50;99.90
19168;DHT22;9716;53.114;18.040;2023-08-08T02:03:17;14.50;99.90
19168;DHT22;9716;53.114;18.040;2023-08-08T02:05:46;14.50;99.90
19168;DHT22;9716;53.114;18.040;2023-08-08T02:08:20;14.50;99.90
19168;DHT22;9716;53.114;18.040;2023-08-08T02:10:53;14.50;99.90
19168;DHT22;9716;53.114;18.040;2023-08-08T02:13:27;14.50;99.90
19168;DHT22;9716;53.114;18.040;2023-08-08T02:15:59;14.60;99.90
19168;DHT22;9716;53.114;18.040;2023-08-08T02:18:36;14.60;99.90
19168;DHT22;9716;53.114;18.040;2023-08-08T02:21:09;14.60;99.90
19168;DHT22;9716;53.114;18.040;2023-08-08T02:23:49;14.80;99.90
19168;DHT22;9716;53.114;18.040;2023-08-08T02:26:20;14.80;99.90
19168;DHT22;9716;53.114;18.040;2023-08-08T02:28:50;14.80;99.90
19168;DHT22;9716;53.114;18.040;2023-08-08T02:31:19;14.80;99.90
19168;DHT22;9716;53.114;18.040;2023-08-08T02:33:50;14.80;99.90
19168;DHT22;9716;53.114;18.040;2023-08-08T02:36:22;14.80;99.90
19168;DHT22;9716;53.114;18.040;2023-08-08T02:38:52;14.80;99.90
19168;DHT22;9716;53.114;18.040;2023-08-08T02:41:23;14.80;99.90
19168;DHT22;9716;53.114;18.040;2023-08-08T02:43:54;14.80;99.90
19168;DHT22;9716;53.114;18.040;2023-08-08T02:46:29;14.70;99.90
19168;DHT22;9716;53.114;18.040;2023-08-08T02:49:01;14.70;99.90
19168;DHT22;9716;53.114;18.040;2023-08-08T02:51:34;14.70;99.90
19168;DHT22;9716;53.114;18.040;2023-08-08T02:54:08;14.70;99.90
19168;DHT22;9716;53.114;18.040;2023-08-08T02:56:42;14.70;99.90
19168;DHT22;9716;53.114;18.040;2023-08-08T02:59:17;14.70;99.90
19168;DHT22;9716;53.114;18.040;2023-08-08T03:01:46;14.70;99.90
19168;DHT22;9716;53.114;18.040;2023-08-08T03:04:20;14.70;99.90
19168;DHT22;9716;53.114;18.040;2023-08-08T03:06:55;14.70;99.90
19168;DHT22;9716;53.114;18.040;2023-08-08T03:09:42;14.80;99.90
19168;DHT22;9716;53.114;18.040;2023-08-08T03:12:17;14.80;99.90
19168;DHT22;9716;53.114;18.040;2023-08-08T03:14:53;14.80;99.90
19168;DHT22;9716;53.114;18.040;2023-08-08T03:17:28;14.90;99.90
19168;DHT22;9716;53.114;18.040;2023-08-08T03:20:11;14.80;99.90
19168;DHT22;9716;53.114;18.040;2023-08-08T03:22:46;14.90;99.90
19168;DHT22;9716;53.114;18.040;2023-08-08T03:25:23;14.90;99.90
19168;DHT22;9716;53.114;18.040;2023-08-08T03:27:58;15.00;99.90
19168;DHT22;9716;53.114;18.040;2023-08-08T03:30:37;15.00;99.90
19168;DHT22;9716;53.114;18.040;2023-08-08T03:33:10;15.10;99.90
19168;DHT22;9716;53.114;18.040;2023-08-08T03:35:48;15.10;99.90
19168;DHT22;9716;53.114;18.040;2023-08-08T03:38:19;15.20;99.90
19168;DHT22;9716;53.114;18.040;2023-08-08T03:40:53;15.20;99.90
19168;DHT22;9716;53.114;18.040;2023-08-08T03:43:27;15.20;99.90
19168;DHT22;9716;53.114;18.040;2023-08-08T03:46:02;15.30;99.90
19168;DHT22;9716;53.114;18.040;2023-08-08T03:48:42;15.40;99.90
19168;DHT22;9716;53.114;18.040;2023-08-08T03:51:15;15.40;99.90
19168;DHT22;9716;53.114;18.040;2023-08-08T03:53:47;15.50;99.90
19168;DHT22;9716;53.114;18.040;2023-08-08T03:56:21;15.50;99.90
19168;DHT22;9716;53.114;18.040;2023-08-08T03:59:00;15.50;99.90
19168;DHT22;9716;53.114;18.040;2023-08-08T04:01:42;15.60;99.90
19168;DHT22;9716;53.114;18.040;2023-08-08T04:04:32;15.60;99.90
19168;DHT22;9716;53.114;18.040;2023-08-08T04:07:15;15.70;99.90
19168;DHT22;9716;53.114;18.040;2023-08-08T04:09:47;15.60;99.90
19168;DHT22;9716;53.114;18.040;2023-08-08T04:12:22;15.70;99.90
19168;DHT22;9716;53.114;18.040;2023-08-08T04:14:58;15.70;99.90
19168;DHT22;9716;53.114;18.040;2023-08-08T04:17:29;15.80;99.90
19168;DHT22;9716;53.114;18.040;2023-08-08T04:20:09;15.80;99.90
19168;DHT22;9716;53.114;18.040;2023-08-08T04:22:53;15.80;99.90
19168;DHT22;9716;53.114;18.040;2023-08-08T04:25:25;15.90;99.90
19168;DHT22;9716;53.114;18.040;2023-08-08T04:27:57;15.90;99.90
19168;DHT22;9716;53.114;18.040;2023-08-08T04:30:31;16.00;99.90
19168;DHT22;9716;53.114;18.040;2023-08-08T04:33:08;16.20;99.90
19168;DHT22;9716;53.114;18.040;2023-08-08T04:35:43;16.10;99.90
19168;DHT22;9716;53.114;18.040;2023-08-08T04:38:23;16.10;99.90
19168;DHT22;9716;53.114;18.040;2023-08-08T04:40:55;16.10;99.90
19168;DHT22;9716;53.114;18.040;2023-08-08T04:43:24;16.20;99.90
19168;DHT22;9716;53.114;18.040;2023-08-08T04:46:06;16.30;99.90
19168;DHT22;9716;53.114;18.040;2023-08-08T04:48:36;16.30;99.90
19168;DHT22;9716;53.114;18.040;2023-08-08T04:51:08;16.30;99.90
19168;DHT22;9716;53.114;18.040;2023-08-08T04:53:46;16.40;99.90
19168;DHT22;9716;53.114;18.040;2023-08-08T04:56:25;16.40;99.90
19168;DHT22;9716;53.114;18.040;2023-08-08T04:59:00;16.50;99.90
19168;DHT22;9716;53.114;18.040;2023-08-08T05:01:32;16.50;99.90
19168;DHT22;9716;53.114;18.040;2023-08-08T05:04:04;16.50;99.90
19168;DHT22;9716;53.114;18.040;2023-08-08T05:06:33;16.50;99.90
19168;DHT22;9716;53.114;18.040;2023-08-08T05:09:03;16.50;99.90
19168;DHT22;9716;53.114;18.040;2023-08-08T05:11:38;16.60;99.90
19168;DHT22;9716;53.114;18.040;2023-08-08T05:14:08;16.70;99.90
19168;DHT22;9716;53.114;18.040;2023-08-08T05:16:41;16.70;99.90
19168;DHT22;9716;53.114;18.040;2023-08-08T05:19:13;16.70;99.90
19168;DHT22;9716;53.114;18.040;2023-08-08T05:21:44;17.00;99.90
19168;DHT22;9716;53.114;18.040;2023-08-08T05:24:18;17.20;99.90
19168;DHT22;9716;53.114;18.040;2023-08-08T05:26:53;17.40;99.90
19168;DHT22;9716;53.114;18.040;2023-08-08T05:29:26;17.50;99.90
19168;DHT22;9716;53.114;18.040;2023-08-08T05:32:03;17.60;99.90
19168;DHT22;9716;53.114;18.040;2023-08-08T05:34:37;17.80;99.90
19168;DHT22;9716;53.114;18.040;2023-08-08T05:37:11;17.90;99.90
19168;DHT22;9716;53.114;18.040;2023-08-08T05:39:47;18.00;99.90
19168;DHT22;9716;53.114;18.040;2023-08-08T05:42:17;18.10;99.90
19168;DHT22;9716;53.114;18.040;2023-08-08T05:44:57;18.10;99.90
19168;DHT22;9716;53.114;18.040;2023-08-08T05:47:29;18.20;99.90
19168;DHT22;9716;53.114;18.040;2023-08-08T05:49:59;18.20;99.90
19168;DHT22;9716;53.114;18.040;2023-08-08T05:52:45;18.20;99.90
19168;DHT22;9716;53.114;18.040;2023-08-08T05:55:21;18.20;99.90
19168;DHT22;9716;53.114;18.040;2023-08-08T05:58:01;18.30;99.90
19168;DHT22;9716;53.114;18.040;2023-08-08T06:00:34;18.30;99.90
19168;DHT22;9716;53.114;18.040;2023-08-08T06:03:05;18.30;99.90
19168;DHT22;9716;53.114;18.040;2023-08-08T06:05:36;18.40;99.90
19168;DHT22;9716;53.114;18.040;2023-08-08T06:08:13;18.50;99.90
19168;DHT22;9716;53.114;18.040;2023-08-08T06:10:50;18.40;99.90
19168;DHT22;9716;53.114;18.040;2023-08-08T06:13:29;18.60;99.90
19168;DHT22;9716;53.114;18.040;2023-08-08T06:16:00;18.90;99.90
19168;DHT22;9716;53.114;18.040;2023-08-08T06:18:40;19.20;99.90
19168;DHT22;9716;53.114;18.040;2023-08-08T06:21:14;19.70;99.90
19168;DHT22;9716;53.114;18.040;2023-08-08T06:23:46;20.00;99.90
19168;DHT22;9716;53.114;18.040;2023-08-08T06:26:21;20.40;99.90
19168;DHT22;9716;53.114;18.040;2023-08-08T06:28:50;20.70;99.90
19168;DHT22;9716;53.114;18.040;2023-08-08T06:31:23;21.20;99.90
19168;DHT22;9716;53.114;18.040;2023-08-08T06:33:55;21.60;99.90
19168;DHT22;9716;53.114;18.040;2023-08-08T06:36:32;21.90;99.90
19168;DHT22;9716;53.114;18.040;2023-08-08T06:39:11;22.20;99.90
19168;DHT22;9716;53.114;18.040;2023-08-08T06:41:42;22.30;99.90
19168;DHT22;9716;53.114;18.040;2023-08-08T06:44:12;22.30;99.90
19168;DHT22;9716;53.114;18.040;2023-08-08T06:46:44;22.20;99.90
19168;DHT22;9716;53.114;18.040;2023-08-08T06:49:15;22.20;99.90
19168;DHT22;9716;53.114;18.040;2023-08-08T06:51:52;22.20;99.90
19168;DHT22;9716;53.114;18.040;2023-08-08T06:54:27;22.00;99.90
19168;DHT22;9716;53.114;18.040;2023-08-08T06:57:01;21.80;99.90
19168;DHT22;9716;53.114;18.040;2023-08-08T06:59:32;21.60;99.90
19168;DHT22;9716;53.114;18.040;2023-08-08T07:02:06;21.60;99.90
19168;DHT22;9716;53.114;18.040;2023-08-08T07:04:38;21.50;99.90
19168;DHT22;9716;53.114;18.040;2023-08-08T07:07:17;21.40;99.90
19168;DHT22;9716;53.114;18.040;2023-08-08T07:09:48;21.50;99.90
19168;DHT22;9716;53.114;18.040;2023-08-08T07:12:36;22.00;99.90
19168;DHT22;9716;53.114;18.040;2023-08-08T07:15:07;22.70;99.90
19168;DHT22;9716;53.114;18.040;2023-08-08T07:17:43;23.30;99.90
19168;DHT22;9716;53.114;18.040;2023-08-08T07:20:21;23.90;99.90
19168;DHT22;9716;53.114;18.040;2023-08-08T07:22:54;24.40;99.10
19168;DHT22;9716;53.114;18.040;2023-08-08T07:25:32;25.00;97.90
19168;DHT22;9716;53.114;18.040;2023-08-08T07:28:09;25.20;96.40
19168;DHT22;9716;53.114;18.040;2023-08-08T07:31:06;25.30;94.90
19168;DHT22;9716;53.114;18.040;2023-08-08T07:33:42;25.10;94.70
19168;DHT22;9716;53.114;18.040;2023-08-08T07:36:24;25.30;94.30
19168;DHT22;9716;53.114;18.040;2023-08-08T07:39:09;25.60;93.70
19168;DHT22;9716;53.114;18.040;2023-08-08T07:41:58;25.90;92.70
19168;DHT22;9716;53.114;18.040;2023-08-08T07:44:36;26.10;92.00
19168;DHT22;9716;53.114;18.040;2023-08-08T07:47:08;26.40;91.40
19168;DHT22;9716;53.114;18.040;2023-08-08T07:49:59;26.70;90.30
19168;DHT22;9716;53.114;18.040;2023-08-08T07:52:31;27.00;89.50
19168;DHT22;9716;53.114;18.040;2023-08-08T07:55:19;27.20;88.30
19168;DHT22;9716;53.114;18.040;2023-08-08T07:58:03;27.40;86.70
19168;DHT22;9716;53.114;18.040;2023-08-08T08:00:42;27.20;85.20
19168;DHT22;9716;53.114;18.040;2023-08-08T08:03:17;26.70;85.00
19168;DHT22;9716;53.114;18.040;2023-08-08T08:05:51;26.20;85.00
19168;DHT22;9716;53.114;18.040;2023-08-08T08:08:31;25.90;85.40
19168;DHT22;9716;53.114;18.040;2023-08-08T08:11:07;25.50;85.80
19168;DHT22;9716;53.114;18.040;2023-08-08T08:13:48;25.20;86.60
19168;DHT22;9716;53.114;18.040;2023-08-08T08:16:21;25.20;87.10
19168;DHT22;9716;53.114;18.040;2023-08-08T08:18:51;25.20;86.70
19168;DHT22;9716;53.114;18.040;2023-08-08T08:21:27;25.00;86.30
19168;DHT22;9716;53.114;18.040;2023-08-08T08:24:02;24.80;87.80
19168;DHT22;9716;53.114;18.040;2023-08-08T08:26:34;24.60;87.50
19168;DHT22;9716;53.114;18.040;2023-08-08T08:29:07;24.40;87.20
19168;DHT22;9716;53.114;18.040;2023-08-08T08:31:42;24.20;87.70
19168;DHT22;9716;53.114;18.040;2023-08-08T08:34:15;23.90;88.40
19168;DHT22;9716;53.114;18.040;2023-08-08T08:36:45;23.70;89.30
19168;DHT22;9716;53.114;18.040;2023-08-08T08:39:17;23.40;90.00
19168;DHT22;9716;53.114;18.040;2023-08-08T08:41:56;23.20;90.10
19168;DHT22;9716;53.114;18.040;2023-08-08T08:44:31;23.00;90.20
19168;DHT22;9716;53.114;18.040;2023-08-08T08:47:07;22.70;90.70
19168;DHT22;9716;53.114;18.040;2023-08-08T08:49:41;22.50;91.30
19168;DHT22;9716;53.114;18.040;2023-08-08T08:52:14;22.40;91.20
19168;DHT22;9716;53.114;18.040;2023-08-08T08:54:47;22.40;91.40
19168;DHT22;9716;53.114;18.040;2023-08-08T08:57:16;22.50;91.60
19168;DHT22;9716;53.114;18.040;2023-08-08T08:59:47;22.40;91.50
19168;DHT22;9716;53.114;18.040;2023-08-08T09:02:23;22.30;91.60
19168;DHT22;9716;53.114;18.040;2023-08-08T09:05:00;22.20;91.80
19168;DHT22;9716;53.114;18.040;2023-08-08T09:07:33;22.10;92.00
19168;DHT22;9716;53.114;18.040;2023-08-08T09:10:11;22.00;92.20
19168;DHT22;9716;53.114;18.040;2023-08-08T09:12:43;22.00;92.30
19168;DHT22;9716;53.114;18.040;2023-08-08T09:15:16;21.80;92.60
19168;DHT22;9716;53.114;18.040;2023-08-08T09:17:52;21.80;92.80
19168;DHT22;9716;53.114;18.040;2023-08-08T09:20:26;21.70;93.20
19168;DHT22;9716;53.114;18.040;2023-08-08T09:23:00;21.70;93.20
19168;DHT22;9716;53.114;18.040;2023-08-08T09:25:33;21.70;93.00
19168;DHT22;9716;53.114;18.040;2023-08-08T09:28:09;21.70;93.00
19168;DHT22;9716;53.114;18.040;2023-08-08T09:30:43;21.60;93.30
19168;DHT22;9716;53.114;18.040;2023-08-08T09:33:17;21.50;93.90
19168;DHT22;9716;53.114;18.040;2023-08-08T09:35:56;21.60;94.00
19168;DHT22;9716;53.114;18.040;2023-08-08T09:38:30;21.70;94.20
19168;DHT22;9716;53.114;18.040;2023-08-08T09:41:05;21.80;94.10
19168;DHT22;9716;53.114;18.040;2023-08-08T09:43:52;21.90;93.40
19168;DHT22;9716;53.114;18.040;2023-08-08T09:46:29;22.10;93.20
19168;DHT22;9716;53.114;18.040;2023-08-08T09:49:06;22.20;93.10
19168;DHT22;9716;53.114;18.040;2023-08-08T09:51:38;22.40;92.80
19168;DHT22;9716;53.114;18.040;2023-08-08T09:54:10;22.50;92.60
19168;DHT22;9716;53.114;18.040;2023-08-08T09:56:48;22.40;92.50
19168;DHT22;9716;53.114;18.040;2023-08-08T09:59:26;22.30;92.60
19168;DHT22;9716;53.114;18.040;2023-08-08T10:02:02;22.20;92.80
19168;DHT22;9716;53.114;18.040;2023-08-08T10:04:39;22.30;93.00
19168;DHT22;9716;53.114;18.040;2023-08-08T10:07:11;22.30;92.90
19168;DHT22;9716;53.114;18.040;2023-08-08T10:09:51;22.50;92.80
19168;DHT22;9716;53.114;18.040;2023-08-08T10:12:29;22.80;93.00
19168;DHT22;9716;53.114;18.040;2023-08-08T10:15:07;23.00;92.60
19168;DHT22;9716;53.114;18.040;2023-08-08T10:17:53;23.20;92.30
19168;DHT22;9716;53.114;18.040;2023-08-08T10:20:31;23.40;92.20
19168;DHT22;9716;53.114;18.040;2023-08-08T10:23:14;23.60;91.40
19168;DHT22;9716;53.114;18.040;2023-08-08T10:25:52;23.90;91.00
19168;DHT22;9716;53.114;18.040;2023-08-08T10:28:26;24.10;90.70
19168;DHT22;9716;53.114;18.040;2023-08-08T10:31:01;24.30;90.20
19168;DHT22;9716;53.114;18.040;2023-08-08T10:33:40;24.40;89.40
19168;DHT22;9716;53.114;18.040;2023-08-08T10:36:13;24.50;89.60
19168;DHT22;9716;53.114;18.040;2023-08-08T10:38:47;24.60;88.80
19168;DHT22;9716;53.114;18.040;2023-08-08T10:41:45;24.70;89.00
19168;DHT22;9716;53.114;18.040;2023-08-08T10:44:40;24.70;88.80
19168;DHT22;9716;53.114;18.040;2023-08-08T10:47:22;24.80;87.90
19168;DHT22;9716;53.114;18.040;2023-08-08T10:50:02;24.90;87.90
19168;DHT22;9716;53.114;18.040;2023-08-08T10:52:56;25.00;87.40
19168;DHT22;9716;53.114;18.040;2023-08-08T10:55:35;25.00;86.90
19168;DHT22;9716;53.114;18.040;2023-08-08T10:58:13;25.00;86.70
19168;DHT22;9716;53.114;18.040;2023-08-08T11:00:52;24.90;86.60
19168;DHT22;9716;53.114;18.040;2023-08-08T11:03:24;25.00;86.80
19168;DHT22;9716;53.114;18.040;2023-08-08T11:06:03;25.10;87.10
19168;DHT22;9716;53.114;18.040;2023-08-08T11:08:37;25.10;86.30
19168;DHT22;9716;53.114;18.040;2023-08-08T11:11:16;25.10;86.00
19168;DHT22;9716;53.114;18.040;2023-08-08T11:13:53;24.90;85.90
19168;DHT22;9716;53.114;18.040;2023-08-08T11:16:30;24.60;86.70
19168;DHT22;9716;53.114;18.040;2023-08-08T11:19:00;24.30;87.30
19168;DHT22;9716;53.114;18.040;2023-08-08T11:21:33;24.10;88.00
19168;DHT22;9716;53.114;18.040;2023-08-08T11:24:12;23.90;88.20
19168;DHT22;9716;53.114;18.040;2023-08-08T11:26:57;23.70;87.90
19168;DHT22;9716;53.114;18.040;2023-08-08T11:29:29;23.40;88.30
19168;DHT22;9716;53.114;18.040;2023-08-08T11:32:09;23.30;89.10
19168;DHT22;9716;53.114;18.040;2023-08-08T11:34:46;23.10;90.00
19168;DHT22;9716;53.114;18.040;2023-08-08T11:37:19;23.00;90.70
19168;DHT22;9716;53.114;18.040;2023-08-08T11:40:06;22.90;90.80
19168;DHT22;9716;53.114;18.040;2023-08-08T11:42:40;23.10;91.00
19168;DHT22;9716;53.114;18.040;2023-08-08T11:45:26;22.90;90.80
19168;DHT22;9716;53.114;18.040;2023-08-08T11:47:59;22.90;90.80
19168;DHT22;9716;53.114;18.040;2023-08-08T11:50:33;23.00;91.10
19168;DHT22;9716;53.114;18.040;2023-08-08T11:53:03;23.20;90.70
19168;DHT22;9716;53.114;18.040;2023-08-08T11:55:40;23.40;90.50
19168;DHT22;9716;53.114;18.040;2023-08-08T11:58:36;23.70;90.20
19168;DHT22;9716;53.114;18.040;2023-08-08T12:01:13;23.80;90.30
19168;DHT22;9716;53.114;18.040;2023-08-08T12:03:55;23.90;90.00
19168;DHT22;9716;53.114;18.040;2023-08-08T12:06:38;24.00;89.70
19168;DHT22;9716;53.114;18.040;2023-08-08T12:09:13;24.00;89.00
19168;DHT22;9716;53.114;18.040;2023-08-08T12:11:47;24.10;88.20
19168;DHT22;9716;53.114;18.040;2023-08-08T12:14:19;24.20;88.10
19168;DHT22;9716;53.114;18.040;2023-08-08T12:16:57;24.30;88.20
19168;DHT22;9716;53.114;18.040;2023-08-08T12:19:30;24.40;88.10
19168;DHT22;9716;53.114;18.040;2023-08-08T12:22:08;24.30;87.50
19168;DHT22;9716;53.114;18.040;2023-08-08T12:24:50;24.40;86.90
19168;DHT22;9716;53.114;18.040;2023-08-08T12:27:26;24.40;86.90
19168;DHT22;9716;53.114;18.040;2023-08-08T12:29:57;24.30;87.40
19168;DHT22;9716;53.114;18.040;2023-08-08T12:32:28;24.20;87.40
19168;DHT22;9716;53.114;18.040;2023-08-08T12:35:00;24.30;88.00
19168;DHT22;9716;53.114;18.040;2023-08-08T12:37:33;24.30;87.60
19168;DHT22;9716;53.114;18.040;2023-08-08T12:40:06;24.30;88.10
19168;DHT22;9716;53.114;18.040;2023-08-08T12:42:42;24.40;87.90
19168;DHT22;9716;53.114;18.040;2023-08-08T12:45:17;24.40;88.30
19168;DHT22;9716;53.114;18.040;2023-08-08T12:47:56;24.40;88.50
19168;DHT22;9716;53.114;18.040;2023-08-08T12:50:33;24.10;88.80
19168;DHT22;9716;53.114;18.040;2023-08-08T12:53:21;24.10;89.60
19168;DHT22;9716;53.114;18.040;2023-08-08T12:55:52;23.90;89.40
19168;DHT22;9716;53.114;18.040;2023-08-08T12:58:35;23.80;89.40
19168;DHT22;9716;53.114;18.040;2023-08-08T13:01:10;23.70;90.00
19168;DHT22;9716;53.114;18.040;2023-08-08T13:03:47;23.60;90.10
19168;DHT22;9716;53.114;18.040;2023-08-08T13:06:50;23.40;88.90
19168;DHT22;9716;53.114;18.040;2023-08-08T13:09:30;23.20;88.70
19168;DHT22;9716;53.114;18.040;2023-08-08T13:12:12;23.10;88.30
19168;DHT22;9716;53.114;18.040;2023-08-08T13:14:47;22.90;89.20
19168;DHT22;9716;53.114;18.040;2023-08-08T13:17:17;22.70;90.40
19168;DHT22;9716;53.114;18.040;2023-08-08T13:19:48;22.30;91.60
19168;DHT22;9716;53.114;18.040;2023-08-08T13:22:23;22.10;92.90
19168;DHT22;9716;53.114;18.040;2023-08-08T13:25:12;21.70;93.90
19168;DHT22;9716;53.114;18.040;2023-08-08T13:27:56;21.30;94.80
19168;DHT22;9716;53.114;18.040;2023-08-08T13:30:32;21.10;95.70
19168;DHT22;9716;53.114;18.040;2023-08-08T13:33:09;21.10;96.60
19168;DHT22;9716;53.114;18.040;2023-08-08T13:35:52;21.30;97.40
19168;DHT22;9716;53.114;18.040;2023-08-08T13:38:29;21.30;98.00
19168;DHT22;9716;53.114;18.040;2023-08-08T13:41:07;21.40;98.60
19168;DHT22;9716;53.114;18.040;2023-08-08T13:43:39;21.50;98.70
19168;DHT22;9716;53.114;18.040;2023-08-08T13:46:13;21.50;98.80
19168;DHT22;9716;53.114;18.040;2023-08-08T13:48:44;21.40;98.60
19168;DHT22;9716;53.114;18.040;2023-08-08T13:51:20;21.40;98.70
19168;DHT22;9716;53.114;18.040;2023-08-08T13:53:58;21.30;98.90
19168;DHT22;9716;53.114;18.040;2023-08-08T13:56:31;21.40;99.10
19168;DHT22;9716;53.114;18.040;2023-08-08T13:59:00;21.40;99.20
19168;DHT22;9716;53.114;18.040;2023-08-08T14:01:29;21.60;98.90
19168;DHT22;9716;53.114;18.040;2023-08-08T14:03:58;21.70;98.70
19168;DHT22;9716;53.114;18.040;2023-08-08T14:06:31;21.70;98.60
19168;DHT22;9716;53.114;18.040;2023-08-08T14:09:01;21.80;98.40
19168;DHT22;9716;53.114;18.040;2023-08-08T14:11:32;21.90;97.70
19168;DHT22;9716;53.114;18.040;2023-08-08T14:14:01;22.00;98.10
19168;DHT22;9716;53.114;18.040;2023-08-08T14:16:31;22.20;98.70
19168;DHT22;9716;53.114;18.040;2023-08-08T14:18:59;22.30;99.80
19168;DHT22;9716;53.114;18.040;2023-08-08T14:21:28;22.40;99.90
19168;DHT22;9716;53.114;18.040;2023-08-08T14:23:57;22.40;99.90
19168;DHT22;9716;53.114;18.040;2023-08-08T14:26:27;22.40;99.90
19168;DHT22;9716;53.114;18.040;2023-08-08T14:28:56;22.40;99.90
19168;DHT22;9716;53.114;18.040;2023-08-08T14:31:25;22.40;99.90
19168;DHT22;9716;53.114;18.040;2023-08-08T14:33:53;22.40;99.90
19168;DHT22;9716;53.114;18.040;2023-08-08T14:36:22;22.40;99.90
19168;DHT22;9716;53.114;18.040;2023-08-08T14:38:51;22.40;99.90
19168;DHT22;9716;53.114;18.040;2023-08-08T14:41:20;22.40;99.90
19168;DHT22;9716;53.114;18.040;2023-08-08T14:43:50;22.40;99.90
19168;DHT22;9716;53.114;18.040;2023-08-08T14:46:19;22.50;99.90
19168;DHT22;9716;53.114;18.040;2023-08-08T14:48:47;22.50;99.90
19168;DHT22;9716;53.114;18.040;2023-08-08T14:51:16;22.60;99.90
19168;DHT22;9716;53.114;18.040;2023-08-08T14:53:46;22.70;99.90
19168;DHT22;9716;53.114;18.040;2023-08-08T14:56:15;22.80;99.90
19168;DHT22;9716;53.114;18.040;2023-08-08T14:58:44;22.90;99.90
19168;DHT22;9716;53.114;18.040;2023-08-08T15:01:14;23.00;99.90
19168;DHT22;9716;53.114;18.040;2023-08-08T15:03:43;23.00;99.90
19168;DHT22;9716;53.114;18.040;2023-08-08T15:06:12;23.10;99.90
19168;DHT22;9716;53.114;18.040;2023-08-08T15:08:43;23.10;99.90
19168;DHT22;9716;53.114;18.040;2023-08-08T15:11:12;23.10;99.90
19168;DHT22;9716;53.114;18.040;2023-08-08T15:13:41;23.10;99.90
19168;DHT22;9716;53.114;18.040;2023-08-08T15:16:10;23.20;99.90
19168;DHT22;9716;53.114;18.040;2023-08-08T15:18:40;23.30;99.90
19168;DHT22;9716;53.114;18.040;2023-08-08T15:21:09;23.20;99.90
19168;DHT22;9716;53.114;18.040;2023-08-08T15:23:39;23.20;99.90
19168;DHT22;9716;53.114;18.040;2023-08-08T15:26:09;23.20;99.90
19168;DHT22;9716;53.114;18.040;2023-08-08T15:28:37;23.20;99.90
19168;DHT22;9716;53.114;18.040;2023-08-08T15:31:06;23.10;99.90
19168;DHT22;9716;53.114;18.040;2023-08-08T15:33:35;23.10;99.90
19168;DHT22;9716;53.114;18.040;2023-08-08T15:36:05;23.10;99.90
19168;DHT22;9716;53.114;18.040;2023-08-08T15:38:34;23.00;99.90
19168;DHT22;9716;53.114;18.040;2023-08-08T15:41:03;22.90;99.90
19168;DHT22;9716;53.114;18.040;2023-08-08T15:43:32;22.80;99.90
19168;DHT22;9716;53.114;18.040;2023-08-08T15:46:03;22.70;99.90
19168;DHT22;9716;53.114;18.040;2023-08-08T15:48:33;22.70;99.90
19168;DHT22;9716;53.114;18.040;2023-08-08T15:51:01;22.60;99.90
19168;DHT22;9716;53.114;18.040;2023-08-08T15:53:38;22.60;99.90
19168;DHT22;9716;53.114;18.040;2023-08-08T15:56:09;22.50;99.90
19168;DHT22;9716;53.114;18.040;2023-08-08T15:58:38;22.50;99.90
19168;DHT22;9716;53.114;18.040;2023-08-08T16:01:09;22.60;99.90
19168;DHT22;9716;53.114;18.040;2023-08-08T16:03:38;22.60;99.90
19168;DHT22;9716;53.114;18.040;2023-08-08T16:06:07;22.50;99.90
19168;DHT22;9716;53.114;18.040;2023-08-08T16:08:39;22.40;99.90
19168;DHT22;9716;53.114;18.040;2023-08-08T16:11:08;22.20;99.90
19168;DHT22;9716;53.114;18.040;2023-08-08T16:13:37;22.10;99.90
19168;DHT22;9716;53.114;18.040;2023-08-08T16:16:07;21.90;99.90